sensor_id;sensor_type;location;lat;lon;timestamp;P1;durP1;ratioP1;P2;durP2;ratioP2
76495;SDS011;65329;52.544;4.662;2023-10-13T00:00:40;10.48;;;3.58;;
76495;SDS011;65329;52.544;4.662;2023-10-13T00:03:07;5.90;;;2.60;;
76495;SDS011;65329;52.544;4.662;2023-10-13T00:05:45;10.48;;;3.42;;
76495;SDS011;65329;52.544;4.662;2023-10-13T00:08:13;6.63;;;3.08;;
76495;SDS011;65329;52.544;4.662;2023-10-13T00:10:41;7.00;;;3.10;;
76495;SDS011;65329;52.544;4.662;2023-10-13T00:13:09;6.78;;;3.03;;
76495;SDS011;65329;52.544;4.662;2023-10-13T00:15:39;6.72;;;2.75;;
76495;SDS011;65329;52.544;4.662;2023-10-13T00:18:13;5.18;;;3.25;;
76495;SDS011;65329;52.544;4.662;2023-10-13T00:20:41;7.35;;;2.88;;
76495;SDS011;65329;52.544;4.662;2023-10-13T00:23:16;11.75;;;3.28;;
76495;SDS011;65329;52.544;4.662;2023-10-13T00:25:50;6.93;;;2.90;;
76495;SDS011;65329;52.544;4.662;2023-10-13T00:28:24;7.40;;;2.95;;
76495;SDS011;65329;52.544;4.662;2023-10-13T00:31:02;4.43;;;3.08;;
76495;SDS011;65329;52.544;4.662;2023-10-13T00:33:38;6.55;;;3.28;;
76495;SDS011;65329;52.544;4.662;2023-10-13T00:36:08;9.00;;;3.17;;
76495;SDS011;65329;52.544;4.662;2023-10-13T00:38:43;6.55;;;2.95;;
76495;SDS011;65329;52.544;4.662;2023-10-13T00:41:15;9.55;;;3.35;;
76495;SDS011;65329;52.544;4.662;2023-10-13T00:43:47;4.25;;;2.65;;
76495;SDS011;65329;52.544;4.662;2023-10-13T00:46:31;4.55;;;2.60;;
76495;SDS011;65329;52.544;4.662;2023-10-13T00:49:00;8.27;;;3.42;;
76495;SDS011;65329;52.544;4.662;2023-10-13T00:51:30;6.95;;;3.35;;
76495;SDS011;65329;52.544;4.662;2023-10-13T00:54:13;5.60;;;2.58;;
76495;SDS011;65329;52.544;4.662;2023-10-13T00:56:45;6.90;;;2.95;;
76495;SDS011;65329;52.544;4.662;2023-10-13T00:59:24;4.47;;;3.13;;
76495;SDS011;65329;52.544;4.662;2023-10-13T01:01:52;9.02;;;4.03;;
76495;SDS011;65329;52.544;4.662;2023-10-13T01:04:22;4.78;;;3.03;;
76495;SDS011;65329;52.544;4.662;2023-10-13T01:06:54;7.03;;;3.42;;
76495;SDS011;65329;52.544;4.662;2023-10-13T01:09:21;4.95;;;3.42;;
76495;SDS011;65329;52.544;4.662;2023-10-13T01:11:52;9.88;;;3.33;;
76495;SDS011;65329;52.544;4.662;2023-10-13T01:14:20;5.72;;;2.55;;
76495;SDS011;65329;52.544;4.662;2023-10-13T01:16:47;5.90;;;2.85;;
76495;SDS011;65329;52.544;4.662;2023-10-13T01:19:19;6.68;;;3.25;;
76495;SDS011;65329;52.544;4.662;2023-10-13T01:21:51;7.47;;;3.65;;
76495;SDS011;65329;52.544;4.662;2023-10-13T01:24:29;6.95;;;4.35;;
76495;SDS011;65329;52.544;4.662;2023-10-13T01:27:04;6.88;;;3.30;;
76495;SDS011;65329;52.544;4.662;2023-10-13T01:29:45;10.00;;;3.70;;
76495;SDS011;65329;52.544;4.662;2023-10-13T01:34:50;6.65;;;3.28;;
76495;SDS011;65329;52.544;4.662;2023-10-13T01:37:22;8.45;;;3.53;;
76495;SDS011;65329;52.544;4.662;2023-10-13T01:39:49;6.20;;;2.83;;
76495;SDS011;65329;52.544;4.662;2023-10-13T01:42:17;7.82;;;2.65;;
76495;SDS011;65329;52.544;4.662;2023-10-13T01:44:49;5.07;;;2.42;;
76495;SDS011;65329;52.544;4.662;2023-10-13T01:47:16;4.47;;;2.17;;
76495;SDS011;65329;52.544;4.662;2023-10-13T01:49:44;3.78;;;2.20;;
76495;SDS011;65329;52.544;4.662;2023-10-13T01:52:14;5.25;;;2.33;;
76495;SDS011;65329;52.544;4.662;2023-10-13T01:54:45;4.95;;;2.30;;
76495;SDS011;65329;52.544;4.662;2023-10-13T01:57:16;7.32;;;2.25;;
76495;SDS011;65329;52.544;4.662;2023-10-13T01:59:51;4.05;;;1.83;;
76495;SDS011;65329;52.544;4.662;2023-10-13T02:02:18;6.78;;;2.08;;
76495;SDS011;65329;52.544;4.662;2023-10-13T02:04:56;11.38;;;1.65;;
76495;SDS011;65329;52.544;4.662;2023-10-13T02:07:28;8.98;;;1.63;;
76495;SDS011;65329;52.544;4.662;2023-10-13T02:10:01;8.60;;;1.33;;
76495;SDS011;65329;52.544;4.662;2023-10-13T02:12:32;7.47;;;1.23;;
76495;SDS011;65329;52.544;4.662;2023-10-13T02:15:13;8.50;;;1.48;;
76495;SDS011;65329;52.544;4.662;2023-10-13T02:17:53;7.72;;;1.50;;
76495;SDS011;65329;52.544;4.662;2023-10-13T02:20:22;7.18;;;1.70;;
76495;SDS011;65329;52.544;4.662;2023-10-13T02:22:57;11.00;;;2.25;;
76495;SDS011;65329;52.544;4.662;2023-10-13T02:25:25;10.50;;;1.80;;
76495;SDS011;65329;52.544;4.662;2023-10-13T02:28:13;7.00;;;2.08;;
76495;SDS011;65329;52.544;4.662;2023-10-13T02:30:41;9.68;;;2.35;;
76495;SDS011;65329;52.544;4.662;2023-10-13T02:33:15;5.00;;;1.33;;
76495;SDS011;65329;52.544;4.662;2023-10-13T02:35:48;7.32;;;2.13;;
76495;SDS011;65329;52.544;4.662;2023-10-13T02:38:22;6.88;;;1.98;;
76495;SDS011;65329;52.544;4.662;2023-10-13T02:40:59;7.38;;;1.80;;
76495;SDS011;65329;52.544;4.662;2023-10-13T02:43:35;10.38;;;2.60;;
76495;SDS011;65329;52.544;4.662;2023-10-13T02:46:04;10.13;;;3.22;;
76495;SDS011;65329;52.544;4.662;2023-10-13T02:48:31;10.80;;;3.42;;
76495;SDS011;65329;52.544;4.662;2023-10-13T02:51:07;9.48;;;3.00;;
76495;SDS011;65329;52.544;4.662;2023-10-13T02:53:45;11.93;;;3.67;;
76495;SDS011;65329;52.544;4.662;2023-10-13T02:56:16;9.32;;;3.10;;
76495;SDS011;65329;52.544;4.662;2023-10-13T02:58:51;14.60;;;2.90;;
76495;SDS011;65329;52.544;4.662;2023-10-13T03:01:34;10.82;;;4.28;;
76495;SDS011;65329;52.544;4.662;2023-10-13T03:04:03;10.40;;;4.32;;
76495;SDS011;65329;52.544;4.662;2023-10-13T03:06:35;10.55;;;4.63;;
76495;SDS011;65329;52.544;4.662;2023-10-13T03:09:03;11.50;;;5.22;;
76495;SDS011;65329;52.544;4.662;2023-10-13T03:11:41;14.93;;;5.35;;
76495;SDS011;65329;52.544;4.662;2023-10-13T03:14:18;14.07;;;5.22;;
76495;SDS011;65329;52.544;4.662;2023-10-13T03:16:59;12.55;;;3.80;;
76495;SDS011;65329;52.544;4.662;2023-10-13T03:19:36;9.98;;;3.65;;
76495;SDS011;65329;52.544;4.662;2023-10-13T03:22:06;7.93;;;3.17;;
76495;SDS011;65329;52.544;4.662;2023-10-13T03:24:40;10.23;;;3.35;;
76495;SDS011;65329;52.544;4.662;2023-10-13T03:27:17;7.93;;;3.30;;
76495;SDS011;65329;52.544;4.662;2023-10-13T03:29:49;7.82;;;3.78;;
76495;SDS011;65329;52.544;4.662;2023-10-13T03:32:22;10.35;;;3.00;;
76495;SDS011;65329;52.544;4.662;2023-10-13T03:34:53;6.95;;;3.50;;
76495;SDS011;65329;52.544;4.662;2023-10-13T03:37:27;9.10;;;3.67;;
76495;SDS011;65329;52.544;4.662;2023-10-13T03:40:11;9.73;;;3.45;;
76495;SDS011;65329;52.544;4.662;2023-10-13T03:42:51;7.93;;;3.88;;
76495;SDS011;65329;52.544;4.662;2023-10-13T03:45:34;6.05;;;3.22;;
76495;SDS011;65329;52.544;4.662;2023-10-13T03:48:17;6.13;;;3.47;;
76495;SDS011;65329;52.544;4.662;2023-10-13T03:50:54;6.50;;;3.38;;
76495;SDS011;65329;52.544;4.662;2023-10-13T03:53:30;5.10;;;3.00;;
76495;SDS011;65329;52.544;4.662;2023-10-13T03:56:02;4.78;;;3.53;;
76495;SDS011;65329;52.544;4.662;2023-10-13T03:58:39;5.68;;;3.40;;
76495;SDS011;65329;52.544;4.662;2023-10-13T04:01:14;7.30;;;3.85;;
76495;SDS011;65329;52.544;4.662;2023-10-13T04:03:43;5.90;;;3.58;;
76495;SDS011;65329;52.544;4.662;2023-10-13T04:06:32;5.15;;;3.33;;
76495;SDS011;65329;52.544;4.662;2023-10-13T04:09:15;5.93;;;3.58;;
76495;SDS011;65329;52.544;4.662;2023-10-13T04:11:58;6.40;;;3.75;;
76495;SDS011;65329;52.544;4.662;2023-10-13T04:14:29;5.95;;;4.10;;
76495;SDS011;65329;52.544;4.662;2023-10-13T04:17:16;3.53;;;2.85;;
76495;SDS011;65329;52.544;4.662;2023-10-13T04:19:50;4.32;;;3.22;;
76495;SDS011;65329;52.544;4.662;2023-10-13T04:22:33;4.22;;;3.28;;
76495;SDS011;65329;52.544;4.662;2023-10-13T04:25:23;6.55;;;3.47;;
76495;SDS011;65329;52.544;4.662;2023-10-13T04:28:11;6.30;;;3.40;;
76495;SDS011;65329;52.544;4.662;2023-10-13T04:30:43;4.97;;;3.55;;
76495;SDS011;65329;52.544;4.662;2023-10-13T04:33:32;6.32;;;3.30;;
76495;SDS011;65329;52.544;4.662;2023-10-13T04:36:11;4.78;;;3.03;;
76495;SDS011;65329;52.544;4.662;2023-10-13T04:38:43;4.80;;;3.65;;
76495;SDS011;65329;52.544;4.662;2023-10-13T04:41:27;6.97;;;3.55;;
76495;SDS011;65329;52.544;4.662;2023-10-13T04:44:25;4.90;;;2.97;;
76495;SDS011;65329;52.544;4.662;2023-10-13T04:47:07;5.80;;;3.10;;
76495;SDS011;65329;52.544;4.662;2023-10-13T04:49:39;4.15;;;3.13;;
76495;SDS011;65329;52.544;4.662;2023-10-13T04:52:09;4.50;;;3.20;;
76495;SDS011;65329;52.544;4.662;2023-10-13T04:54:39;5.70;;;3.95;;
76495;SDS011;65329;52.544;4.662;2023-10-13T04:57:17;4.35;;;3.25;;
76495;SDS011;65329;52.544;4.662;2023-10-13T05:00:07;6.03;;;3.28;;
76495;SDS011;65329;52.544;4.662;2023-10-13T05:02:41;6.40;;;3.58;;
76495;SDS011;65329;52.544;4.662;2023-10-13T05:05:45;8.25;;;3.63;;
76495;SDS011;65329;52.544;4.662;2023-10-13T05:08:32;6.55;;;4.05;;
76495;SDS011;65329;52.544;4.662;2023-10-13T05:11:22;7.80;;;4.30;;
76495;SDS011;65329;52.544;4.662;2023-10-13T05:14:07;11.98;;;5.10;;
76495;SDS011;65329;52.544;4.662;2023-10-13T05:16:52;12.40;;;4.95;;
76495;SDS011;65329;52.544;4.662;2023-10-13T05:19:37;9.95;;;4.80;;
76495;SDS011;65329;52.544;4.662;2023-10-13T05:22:23;8.38;;;4.38;;
76495;SDS011;65329;52.544;4.662;2023-10-13T05:25:08;8.75;;;3.67;;
76495;SDS011;65329;52.544;4.662;2023-10-13T05:27:53;12.52;;;3.67;;
76495;SDS011;65329;52.544;4.662;2023-10-13T05:30:58;15.32;;;4.07;;
76495;SDS011;65329;52.544;4.662;2023-10-13T05:33:45;16.98;;;4.47;;
76495;SDS011;65329;52.544;4.662;2023-10-13T05:36:30;22.13;;;4.20;;
76495;SDS011;65329;52.544;4.662;2023-10-13T05:39:15;14.52;;;3.97;;
76495;SDS011;65329;52.544;4.662;2023-10-13T05:42:01;23.10;;;5.10;;
76495;SDS011;65329;52.544;4.662;2023-10-13T05:44:46;15.90;;;3.75;;
76495;SDS011;65329;52.544;4.662;2023-10-13T05:47:31;17.45;;;4.18;;
76495;SDS011;65329;52.544;4.662;2023-10-13T05:50:10;16.88;;;3.70;;
76495;SDS011;65329;52.544;4.662;2023-10-13T05:52:59;20.23;;;4.13;;
76495;SDS011;65329;52.544;4.662;2023-10-13T05:55:26;24.42;;;4.78;;
76495;SDS011;65329;52.544;4.662;2023-10-13T05:58:13;22.15;;;4.70;;
76495;SDS011;65329;52.544;4.662;2023-10-13T06:01:00;25.08;;;5.53;;
76495;SDS011;65329;52.544;4.662;2023-10-13T06:03:46;20.38;;;4.75;;
76495;SDS011;65329;52.544;4.662;2023-10-13T06:06:38;20.05;;;5.13;;
76495;SDS011;65329;52.544;4.662;2023-10-13T06:09:42;21.70;;;5.20;;
76495;SDS011;65329;52.544;4.662;2023-10-13T06:12:27;21.13;;;5.47;;
76495;SDS011;65329;52.544;4.662;2023-10-13T06:15:13;22.52;;;5.03;;
76495;SDS011;65329;52.544;4.662;2023-10-13T06:18:08;16.08;;;3.95;;
76495;SDS011;65329;52.544;4.662;2023-10-13T06:20:53;21.33;;;5.25;;
76495;SDS011;65329;52.544;4.662;2023-10-13T06:23:38;20.55;;;5.30;;
76495;SDS011;65329;52.544;4.662;2023-10-13T06:26:23;21.15;;;4.60;;
76495;SDS011;65329;52.544;4.662;2023-10-13T06:29:09;21.67;;;4.32;;
76495;SDS011;65329;52.544;4.662;2023-10-13T06:31:36;15.63;;;4.07;;
76495;SDS011;65329;52.544;4.662;2023-10-13T06:34:04;16.58;;;4.43;;
76495;SDS011;65329;52.544;4.662;2023-10-13T06:36:31;19.63;;;5.03;;
76495;SDS011;65329;52.544;4.662;2023-10-13T06:38:59;19.83;;;4.93;;
76495;SDS011;65329;52.544;4.662;2023-10-13T06:41:45;21.58;;;5.25;;
76495;SDS011;65329;52.544;4.662;2023-10-13T06:44:13;15.43;;;4.82;;
76495;SDS011;65329;52.544;4.662;2023-10-13T06:46:42;14.95;;;4.30;;
76495;SDS011;65329;52.544;4.662;2023-10-13T06:49:10;14.02;;;4.43;;
76495;SDS011;65329;52.544;4.662;2023-10-13T06:51:39;14.65;;;4.47;;
76495;SDS011;65329;52.544;4.662;2023-10-13T06:54:06;14.10;;;4.38;;
76495;SDS011;65329;52.544;4.662;2023-10-13T06:56:48;13.18;;;4.55;;
76495;SDS011;65329;52.544;4.662;2023-10-13T06:59:19;15.65;;;4.00;;
76495;SDS011;65329;52.544;4.662;2023-10-13T07:01:46;17.65;;;4.20;;
76495;SDS011;65329;52.544;4.662;2023-10-13T07:04:15;9.85;;;3.75;;
76495;SDS011;65329;52.544;4.662;2023-10-13T07:06:43;11.85;;;4.63;;
76495;SDS011;65329;52.544;4.662;2023-10-13T07:09:17;13.45;;;3.25;;
76495;SDS011;65329;52.544;4.662;2023-10-13T07:12:03;10.27;;;4.43;;
76495;SDS011;65329;52.544;4.662;2023-10-13T07:14:33;8.07;;;3.13;;
76495;SDS011;65329;52.544;4.662;2023-10-13T07:17:01;6.60;;;3.38;;
76495;SDS011;65329;52.544;4.662;2023-10-13T07:19:29;10.25;;;3.70;;
76495;SDS011;65329;52.544;4.662;2023-10-13T07:21:57;8.60;;;3.05;;
76495;SDS011;65329;52.544;4.662;2023-10-13T07:24:43;10.00;;;3.53;;
76495;SDS011;65329;52.544;4.662;2023-10-13T07:27:10;11.60;;;3.78;;
76495;SDS011;65329;52.544;4.662;2023-10-13T07:29:37;10.60;;;4.93;;
76495;SDS011;65329;52.544;4.662;2023-10-13T07:32:04;6.43;;;3.20;;
76495;SDS011;65329;52.544;4.662;2023-10-13T07:34:39;10.65;;;4.13;;
76495;SDS011;65329;52.544;4.662;2023-10-13T07:37:06;7.13;;;4.03;;
76495;SDS011;65329;52.544;4.662;2023-10-13T07:39:39;9.88;;;4.65;;
76495;SDS011;65329;52.544;4.662;2023-10-13T07:42:06;9.65;;;4.65;;
76495;SDS011;65329;52.544;4.662;2023-10-13T07:44:35;8.57;;;4.65;;
76495;SDS011;65329;52.544;4.662;2023-10-13T07:47:03;10.45;;;5.40;;
76495;SDS011;65329;52.544;4.662;2023-10-13T07:49:38;10.45;;;4.90;;
76495;SDS011;65329;52.544;4.662;2023-10-13T07:52:07;10.77;;;5.22;;
76495;SDS011;65329;52.544;4.662;2023-10-13T07:54:54;10.63;;;5.07;;
76495;SDS011;65329;52.544;4.662;2023-10-13T07:57:53;11.38;;;5.05;;
76495;SDS011;65329;52.544;4.662;2023-10-13T08:00:23;10.10;;;5.85;;
76495;SDS011;65329;52.544;4.662;2023-10-13T08:03:14;8.82;;;5.00;;
76495;SDS011;65329;52.544;4.662;2023-10-13T08:05:45;10.60;;;6.35;;
76495;SDS011;65329;52.544;4.662;2023-10-13T08:13:50;10.75;;;5.45;;
76495;SDS011;65329;52.544;4.662;2023-10-13T08:16:30;8.35;;;5.05;;
76495;SDS011;65329;52.544;4.662;2023-10-13T08:19:13;12.68;;;5.15;;
76495;SDS011;65329;52.544;4.662;2023-10-13T08:21:44;14.35;;;5.40;;
76495;SDS011;65329;52.544;4.662;2023-10-13T08:24:18;11.07;;;4.55;;
76495;SDS011;65329;52.544;4.662;2023-10-13T08:26:52;9.77;;;4.72;;
76495;SDS011;65329;52.544;4.662;2023-10-13T08:29:38;8.15;;;4.55;;
76495;SDS011;65329;52.544;4.662;2023-10-13T08:32:27;10.65;;;4.85;;
76495;SDS011;65329;52.544;4.662;2023-10-13T08:34:56;9.50;;;4.20;;
76495;SDS011;65329;52.544;4.662;2023-10-13T08:37:27;11.50;;;4.57;;
76495;SDS011;65329;52.544;4.662;2023-10-13T08:39:59;8.15;;;3.53;;
76495;SDS011;65329;52.544;4.662;2023-10-13T08:42:52;7.75;;;4.07;;
76495;SDS011;65329;52.544;4.662;2023-10-13T08:45:31;8.38;;;3.53;;
76495;SDS011;65329;52.544;4.662;2023-10-13T08:48:02;9.73;;;4.30;;
76495;SDS011;65329;52.544;4.662;2023-10-13T08:53:22;14.30;;;4.00;;
76495;SDS011;65329;52.544;4.662;2023-10-13T08:56:11;11.35;;;3.80;;
76495;SDS011;65329;52.544;4.662;2023-10-13T08:58:45;8.57;;;4.05;;
76495;SDS011;65329;52.544;4.662;2023-10-13T09:01:26;8.57;;;4.00;;
76495;SDS011;65329;52.544;4.662;2023-10-13T09:04:09;12.73;;;3.72;;
76495;SDS011;65329;52.544;4.662;2023-10-13T09:06:57;12.85;;;4.00;;
76495;SDS011;65329;52.544;4.662;2023-10-13T09:12:13;9.43;;;4.18;;
76495;SDS011;65329;52.544;4.662;2023-10-13T09:15:00;14.13;;;3.47;;
76495;SDS011;65329;52.544;4.662;2023-10-13T09:17:41;13.25;;;5.15;;
76495;SDS011;65329;52.544;4.662;2023-10-13T09:20:14;11.40;;;4.07;;
76495;SDS011;65329;52.544;4.662;2023-10-13T09:22:54;10.52;;;4.03;;
76495;SDS011;65329;52.544;4.662;2023-10-13T09:25:37;10.05;;;3.95;;
76495;SDS011;65329;52.544;4.662;2023-10-13T09:28:12;10.68;;;4.15;;
76495;SDS011;65329;52.544;4.662;2023-10-13T09:30:45;9.95;;;4.20;;
76495;SDS011;65329;52.544;4.662;2023-10-13T09:33:13;8.43;;;3.67;;
76495;SDS011;65329;52.544;4.662;2023-10-13T09:35:44;14.38;;;4.32;;
76495;SDS011;65329;52.544;4.662;2023-10-13T09:38:16;12.15;;;3.97;;
76495;SDS011;65329;52.544;4.662;2023-10-13T09:40:43;14.77;;;4.75;;
76495;SDS011;65329;52.544;4.662;2023-10-13T09:43:17;12.73;;;4.38;;
76495;SDS011;65329;52.544;4.662;2023-10-13T09:45:48;14.80;;;4.57;;
76495;SDS011;65329;52.544;4.662;2023-10-13T09:48:47;13.07;;;3.85;;
76495;SDS011;65329;52.544;4.662;2023-10-13T09:51:30;12.15;;;4.03;;
76495;SDS011;65329;52.544;4.662;2023-10-13T09:57:07;15.70;;;5.00;;
76495;SDS011;65329;52.544;4.662;2023-10-13T09:59:44;11.95;;;4.43;;
76495;SDS011;65329;52.544;4.662;2023-10-13T10:02:19;16.15;;;5.60;;
76495;SDS011;65329;52.544;4.662;2023-10-13T10:04:56;10.50;;;4.10;;
76495;SDS011;65329;52.544;4.662;2023-10-13T10:07:39;20.80;;;5.03;;
76495;SDS011;65329;52.544;4.662;2023-10-13T10:10:06;16.02;;;4.68;;
76495;SDS011;65329;52.544;4.662;2023-10-13T10:18:02;17.23;;;4.78;;
76495;SDS011;65329;52.544;4.662;2023-10-13T10:20:34;8.13;;;3.58;;
76495;SDS011;65329;52.544;4.662;2023-10-13T10:23:24;19.60;;;6.07;;
76495;SDS011;65329;52.544;4.662;2023-10-13T10:25:55;15.48;;;4.38;;
76495;SDS011;65329;52.544;4.662;2023-10-13T10:28:35;13.90;;;3.80;;
76495;SDS011;65329;52.544;4.662;2023-10-13T10:31:11;20.20;;;4.25;;
76495;SDS011;65329;52.544;4.662;2023-10-13T10:33:46;11.02;;;3.65;;
76495;SDS011;65329;52.544;4.662;2023-10-13T10:36:17;12.48;;;4.20;;
76495;SDS011;65329;52.544;4.662;2023-10-13T10:38:57;14.57;;;4.40;;
76495;SDS011;65329;52.544;4.662;2023-10-13T10:41:28;15.38;;;4.50;;
76495;SDS011;65329;52.544;4.662;2023-10-13T10:44:15;12.98;;;3.80;;
76495;SDS011;65329;52.544;4.662;2023-10-13T10:46:43;10.55;;;3.95;;
76495;SDS011;65329;52.544;4.662;2023-10-13T10:49:19;10.63;;;4.00;;
76495;SDS011;65329;52.544;4.662;2023-10-13T10:52:00;16.00;;;4.38;;
76495;SDS011;65329;52.544;4.662;2023-10-13T10:54:30;14.35;;;4.35;;
76495;SDS011;65329;52.544;4.662;2023-10-13T10:57:00;13.35;;;3.85;;
76495;SDS011;65329;52.544;4.662;2023-10-13T11:00:00;12.07;;;4.00;;
76495;SDS011;65329;52.544;4.662;2023-10-13T11:02:38;10.38;;;4.18;;
76495;SDS011;65329;52.544;4.662;2023-10-13T11:05:05;11.38;;;4.13;;
76495;SDS011;65329;52.544;4.662;2023-10-13T11:07:33;14.23;;;4.93;;
76495;SDS011;65329;52.544;4.662;2023-10-13T11:10:10;14.27;;;4.30;;
76495;SDS011;65329;52.544;4.662;2023-10-13T11:12:55;15.30;;;4.57;;
76495;SDS011;65329;52.544;4.662;2023-10-13T11:15:48;14.60;;;3.70;;
76495;SDS011;65329;52.544;4.662;2023-10-13T11:18:17;10.77;;;4.45;;
76495;SDS011;65329;52.544;4.662;2023-10-13T11:20:55;13.80;;;3.63;;
76495;SDS011;65329;52.544;4.662;2023-10-13T11:23:22;12.90;;;4.60;;
76495;SDS011;65329;52.544;4.662;2023-10-13T11:25:58;11.30;;;4.35;;
76495;SDS011;65329;52.544;4.662;2023-10-13T11:28:26;17.85;;;4.75;;
76495;SDS011;65329;52.544;4.662;2023-10-13T11:30:58;13.38;;;4.68;;
76495;SDS011;65329;52.544;4.662;2023-10-13T11:33:26;20.30;;;5.38;;
76495;SDS011;65329;52.544;4.662;2023-10-13T11:35:56;13.68;;;5.03;;
76495;SDS011;65329;52.544;4.662;2023-10-13T11:46:21;11.77;;;3.92;;
76495;SDS011;65329;52.544;4.662;2023-10-13T11:49:03;15.05;;;4.80;;
76495;SDS011;65329;52.544;4.662;2023-10-13T11:51:42;8.63;;;3.30;;
76495;SDS011;65329;52.544;4.662;2023-10-13T11:54:17;10.93;;;4.93;;
76495;SDS011;65329;52.544;4.662;2023-10-13T11:56:45;17.67;;;5.30;;
76495;SDS011;65329;52.544;4.662;2023-10-13T11:59:13;18.63;;;5.15;;
76495;SDS011;65329;52.544;4.662;2023-10-13T12:01:51;16.77;;;5.90;;
76495;SDS011;65329;52.544;4.662;2023-10-13T12:04:37;19.05;;;5.25;;
76495;SDS011;65329;52.544;4.662;2023-10-13T12:07:24;15.25;;;5.28;;
76495;SDS011;65329;52.544;4.662;2023-10-13T12:10:12;17.42;;;4.72;;
76495;SDS011;65329;52.544;4.662;2023-10-13T12:12:43;19.15;;;4.68;;
76495;SDS011;65329;52.544;4.662;2023-10-13T12:15:13;9.63;;;4.32;;
76495;SDS011;65329;52.544;4.662;2023-10-13T12:18:05;17.05;;;4.90;;
76495;SDS011;65329;52.544;4.662;2023-10-13T12:20:33;15.80;;;5.45;;
76495;SDS011;65329;52.544;4.662;2023-10-13T12:23:01;19.63;;;6.50;;
76495;SDS011;65329;52.544;4.662;2023-10-13T12:25:39;18.73;;;5.65;;
76495;SDS011;65329;52.544;4.662;2023-10-13T12:28:22;18.63;;;5.15;;
76495;SDS011;65329;52.544;4.662;2023-10-13T12:30:50;16.90;;;5.55;;
76495;SDS011;65329;52.544;4.662;2023-10-13T12:33:20;24.35;;;6.57;;
76495;SDS011;65329;52.544;4.662;2023-10-13T12:36:07;21.85;;;5.65;;
76495;SDS011;65329;52.544;4.662;2023-10-13T12:38:40;27.60;;;6.55;;
76495;SDS011;65329;52.544;4.662;2023-10-13T12:41:14;24.83;;;6.50;;
76495;SDS011;65329;52.544;4.662;2023-10-13T12:44:05;20.40;;;6.32;;
76495;SDS011;65329;52.544;4.662;2023-10-13T12:49:37;23.73;;;6.30;;
76495;SDS011;65329;52.544;4.662;2023-10-13T12:52:08;19.40;;;5.72;;
76495;SDS011;65329;52.544;4.662;2023-10-13T12:54:52;26.98;;;5.85;;
76495;SDS011;65329;52.544;4.662;2023-10-13T12:57:28;17.20;;;5.60;;
76495;SDS011;65329;52.544;4.662;2023-10-13T12:59:56;19.13;;;6.43;;
76495;SDS011;65329;52.544;4.662;2023-10-13T13:02:23;22.27;;;6.90;;
76495;SDS011;65329;52.544;4.662;2023-10-13T13:04:53;23.80;;;5.97;;
76495;SDS011;65329;52.544;4.662;2023-10-13T13:07:23;20.88;;;5.95;;
76495;SDS011;65329;52.544;4.662;2023-10-13T13:09:56;25.80;;;5.90;;
76495;SDS011;65329;52.544;4.662;2023-10-13T13:12:27;24.65;;;6.72;;
76495;SDS011;65329;52.544;4.662;2023-10-13T13:14:56;15.90;;;4.80;;
76495;SDS011;65329;52.544;4.662;2023-10-13T13:17:23;16.15;;;5.22;;
76495;SDS011;65329;52.544;4.662;2023-10-13T13:19:50;20.08;;;5.68;;
76495;SDS011;65329;52.544;4.662;2023-10-13T13:22:17;16.60;;;5.35;;
76495;SDS011;65329;52.544;4.662;2023-10-13T13:24:45;20.50;;;5.88;;
76495;SDS011;65329;52.544;4.662;2023-10-13T13:27:13;23.08;;;5.47;;
76495;SDS011;65329;52.544;4.662;2023-10-13T13:29:43;18.70;;;5.50;;
76495;SDS011;65329;52.544;4.662;2023-10-13T13:32:11;19.35;;;5.80;;
76495;SDS011;65329;52.544;4.662;2023-10-13T13:34:52;22.88;;;6.18;;
76495;SDS011;65329;52.544;4.662;2023-10-13T13:37:30;20.77;;;6.38;;
76495;SDS011;65329;52.544;4.662;2023-10-13T13:40:04;21.25;;;7.07;;
76495;SDS011;65329;52.544;4.662;2023-10-13T13:42:47;26.33;;;6.50;;
76495;SDS011;65329;52.544;4.662;2023-10-13T13:45:15;23.20;;;6.15;;
76495;SDS011;65329;52.544;4.662;2023-10-13T13:47:54;22.25;;;6.18;;
76495;SDS011;65329;52.544;4.662;2023-10-13T13:50:22;26.42;;;6.25;;
76495;SDS011;65329;52.544;4.662;2023-10-13T13:52:56;25.15;;;6.38;;
76495;SDS011;65329;52.544;4.662;2023-10-13T13:55:24;27.48;;;6.88;;
76495;SDS011;65329;52.544;4.662;2023-10-13T13:57:56;21.70;;;5.82;;
76495;SDS011;65329;52.544;4.662;2023-10-13T14:00:23;28.50;;;6.55;;
76495;SDS011;65329;52.544;4.662;2023-10-13T14:03:07;25.98;;;7.20;;
76495;SDS011;65329;52.544;4.662;2023-10-13T14:06:00;31.50;;;5.80;;
76495;SDS011;65329;52.544;4.662;2023-10-13T14:08:27;24.38;;;5.93;;
76495;SDS011;65329;52.544;4.662;2023-10-13T14:10:54;28.42;;;7.10;;
76495;SDS011;65329;52.544;4.662;2023-10-13T14:13:40;26.85;;;6.10;;
76495;SDS011;65329;52.544;4.662;2023-10-13T14:16:18;26.40;;;6.88;;
76495;SDS011;65329;52.544;4.662;2023-10-13T14:18:46;24.48;;;7.35;;
76495;SDS011;65329;52.544;4.662;2023-10-13T14:21:14;19.48;;;5.88;;
76495;SDS011;65329;52.544;4.662;2023-10-13T14:23:45;24.05;;;5.97;;
76495;SDS011;65329;52.544;4.662;2023-10-13T14:26:14;23.15;;;6.70;;
76495;SDS011;65329;52.544;4.662;2023-10-13T14:28:46;18.83;;;5.82;;
76495;SDS011;65329;52.544;4.662;2023-10-13T14:31:31;20.45;;;5.72;;
76495;SDS011;65329;52.544;4.662;2023-10-13T14:33:58;29.42;;;6.35;;
76495;SDS011;65329;52.544;4.662;2023-10-13T14:36:25;24.95;;;6.13;;
76495;SDS011;65329;52.544;4.662;2023-10-13T14:38:55;26.98;;;6.63;;
76495;SDS011;65329;52.544;4.662;2023-10-13T14:41:22;22.30;;;5.93;;
76495;SDS011;65329;52.544;4.662;2023-10-13T14:43:49;35.13;;;7.05;;
76495;SDS011;65329;52.544;4.662;2023-10-13T14:46:16;27.50;;;6.43;;
76495;SDS011;65329;52.544;4.662;2023-10-13T14:48:52;24.70;;;5.72;;
76495;SDS011;65329;52.544;4.662;2023-10-13T14:51:19;25.52;;;5.60;;
76495;SDS011;65329;52.544;4.662;2023-10-13T14:53:47;24.40;;;6.60;;
76495;SDS011;65329;52.544;4.662;2023-10-13T14:56:19;23.40;;;6.53;;
76495;SDS011;65329;52.544;4.662;2023-10-13T14:58:46;27.75;;;6.55;;
76495;SDS011;65329;52.544;4.662;2023-10-13T15:01:13;24.73;;;6.18;;
76495;SDS011;65329;52.544;4.662;2023-10-13T15:03:43;21.75;;;6.22;;
76495;SDS011;65329;52.544;4.662;2023-10-13T15:06:17;26.42;;;5.75;;
76495;SDS011;65329;52.544;4.662;2023-10-13T15:08:52;23.85;;;5.78;;
76495;SDS011;65329;52.544;4.662;2023-10-13T15:11:22;27.92;;;6.00;;
76495;SDS011;65329;52.544;4.662;2023-10-13T15:14:15;23.92;;;5.57;;
76495;SDS011;65329;52.544;4.662;2023-10-13T15:16:42;19.63;;;6.05;;
76495;SDS011;65329;52.544;4.662;2023-10-13T15:19:10;21.25;;;6.05;;
76495;SDS011;65329;52.544;4.662;2023-10-13T15:21:39;26.80;;;5.63;;
76495;SDS011;65329;52.544;4.662;2023-10-13T15:24:07;23.65;;;5.25;;
76495;SDS011;65329;52.544;4.662;2023-10-13T15:26:51;32.08;;;5.72;;
76495;SDS011;65329;52.544;4.662;2023-10-13T15:29:23;29.20;;;6.18;;
76495;SDS011;65329;52.544;4.662;2023-10-13T15:31:56;24.00;;;5.15;;
76495;SDS011;65329;52.544;4.662;2023-10-13T15:34:29;20.85;;;4.72;;
76495;SDS011;65329;52.544;4.662;2023-10-13T15:36:58;28.20;;;6.20;;
76495;SDS011;65329;52.544;4.662;2023-10-13T15:39:25;18.95;;;4.07;;
76495;SDS011;65329;52.544;4.662;2023-10-13T15:41:57;24.38;;;4.82;;
76495;SDS011;65329;52.544;4.662;2023-10-13T15:44:25;22.08;;;4.82;;
76495;SDS011;65329;52.544;4.662;2023-10-13T15:46:56;22.42;;;5.22;;
76495;SDS011;65329;52.544;4.662;2023-10-13T15:49:27;23.75;;;5.47;;
76495;SDS011;65329;52.544;4.662;2023-10-13T15:51:56;27.45;;;6.35;;
76495;SDS011;65329;52.544;4.662;2023-10-13T15:54:24;18.10;;;5.20;;
76495;SDS011;65329;52.544;4.662;2023-10-13T15:56:51;18.77;;;5.18;;
76495;SDS011;65329;52.544;4.662;2023-10-13T15:59:18;26.08;;;5.60;;